sensor_id;sensor_type;location;lat;lon;timestamp;temperature;humidity
49184;DHT22;35021;49.214;12.270;2024-01-07T00:00:08;21.10;33.70
49184;DHT22;35021;49.214;12.270;2024-01-07T00:02:35;21.10;33.70
49184;DHT22;35021;49.214;12.270;2024-01-07T00:05:03;21.00;33.70
49184;DHT22;35021;49.214;12.270;2024-01-07T00:07:30;21.00;33.80
49184;DHT22;35021;49.214;12.270;2024-01-07T00:09:57;20.90;33.90
49184;DHT22;35021;49.214;12.270;2024-01-07T00:12:24;20.90;34.00
49184;DHT22;35021;49.214;12.270;2024-01-07T00:14:52;20.90;34.10
49184;DHT22;35021;49.214;12.270;2024-01-07T00:17:19;20.80;34.10
49184;DHT22;35021;49.214;12.270;2024-01-07T00:19:46;20.80;34.10
49184;DHT22;35021;49.214;12.270;2024-01-07T00:22:13;20.80;34.10
49184;DHT22;35021;49.214;12.270;2024-01-07T00:24:40;20.80;34.10
49184;DHT22;35021;49.214;12.270;2024-01-07T00:27:07;20.80;34.20
49184;DHT22;35021;49.214;12.270;2024-01-07T00:29:35;20.80;34.20
49184;DHT22;35021;49.214;12.270;2024-01-07T00:32:02;20.80;34.20
49184;DHT22;35021;49.214;12.270;2024-01-07T00:34:29;20.80;34.30
49184;DHT22;35021;49.214;12.270;2024-01-07T00:36:56;20.80;34.30
49184;DHT22;35021;49.214;12.270;2024-01-07T00:39:24;20.80;34.20
49184;DHT22;35021;49.214;12.270;2024-01-07T00:41:51;20.80;34.20
49184;DHT22;35021;49.214;12.270;2024-01-07T00:44:18;20.80;34.20
49184;DHT22;35021;49.214;12.270;2024-01-07T00:46:45;20.80;34.20
49184;DHT22;35021;49.214;12.270;2024-01-07T00:49:15;20.80;34.20
49184;DHT22;35021;49.214;12.270;2024-01-07T00:51:42;20.90;34.20
49184;DHT22;35021;49.214;12.270;2024-01-07T00:54:09;20.90;34.20
49184;DHT22;35021;49.214;12.270;2024-01-07T00:56:36;20.90;34.20
49184;DHT22;35021;49.214;12.270;2024-01-07T00:59:03;20.80;34.10
49184;DHT22;35021;49.214;12.270;2024-01-07T01:01:30;20.90;34.20
49184;DHT22;35021;49.214;12.270;2024-01-07T01:03:57;20.90;34.20
49184;DHT22;35021;49.214;12.270;2024-01-07T01:06:25;20.90;34.20
49184;DHT22;35021;49.214;12.270;2024-01-07T01:08:52;20.90;34.20
49184;DHT22;35021;49.214;12.270;2024-01-07T01:11:19;20.90;34.30
49184;DHT22;35021;49.214;12.270;2024-01-07T01:13:46;20.80;34.30
49184;DHT22;35021;49.214;12.270;2024-01-07T01:16:13;20.80;34.30
49184;DHT22;35021;49.214;12.270;2024-01-07T01:18:40;20.80;34.40
49184;DHT22;35021;49.214;12.270;2024-01-07T01:21:07;20.80;34.40
49184;DHT22;35021;49.214;12.270;2024-01-07T01:23:35;20.80;34.40
49184;DHT22;35021;49.214;12.270;2024-01-07T01:26:02;20.80;34.40
49184;DHT22;35021;49.214;12.270;2024-01-07T01:28:29;20.80;34.40
49184;DHT22;35021;49.214;12.270;2024-01-07T01:30:57;20.80;34.40
49184;DHT22;35021;49.214;12.270;2024-01-07T01:33:24;20.80;34.40
49184;DHT22;35021;49.214;12.270;2024-01-07T01:35:51;20.80;34.40
49184;DHT22;35021;49.214;12.270;2024-01-07T01:38:18;20.80;34.30
49184;DHT22;35021;49.214;12.270;2024-01-07T01:40:51;20.80;34.30
49184;DHT22;35021;49.214;12.270;2024-01-07T01:43:27;20.80;34.20
49184;DHT22;35021;49.214;12.270;2024-01-07T01:45:54;20.80;34.30
49184;DHT22;35021;49.214;12.270;2024-01-07T01:48:22;20.80;34.20
49184;DHT22;35021;49.214;12.270;2024-01-07T01:50:49;20.80;35.00
49184;DHT22;35021;49.214;12.270;2024-01-07T01:53:16;20.80;34.30
49184;DHT22;35021;49.214;12.270;2024-01-07T01:55:44;20.80;34.30
49184;DHT22;35021;49.214;12.270;2024-01-07T01:58:11;20.80;34.30
49184;DHT22;35021;49.214;12.270;2024-01-07T02:00:40;20.80;34.30
49184;DHT22;35021;49.214;12.270;2024-01-07T02:03:07;20.80;34.40
49184;DHT22;35021;49.214;12.270;2024-01-07T02:05:34;20.70;34.30
49184;DHT22;35021;49.214;12.270;2024-01-07T02:08:01;20.70;34.20
49184;DHT22;35021;49.214;12.270;2024-01-07T02:10:28;20.70;34.20
49184;DHT22;35021;49.214;12.270;2024-01-07T02:13:01;20.60;34.00
49184;DHT22;35021;49.214;12.270;2024-01-07T02:15:28;20.60;34.00
49184;DHT22;35021;49.214;12.270;2024-01-07T02:17:55;20.60;34.00
49184;DHT22;35021;49.214;12.270;2024-01-07T02:20:23;20.50;34.00
49184;DHT22;35021;49.214;12.270;2024-01-07T02:22:50;20.50;33.90
49184;DHT22;35021;49.214;12.270;2024-01-07T02:25:18;20.50;33.90
49184;DHT22;35021;49.214;12.270;2024-01-07T02:27:45;20.50;33.90
49184;DHT22;35021;49.214;12.270;2024-01-07T02:30:12;20.50;33.80
49184;DHT22;35021;49.214;12.270;2024-01-07T02:32:39;20.50;33.80
49184;DHT22;35021;49.214;12.270;2024-01-07T02:35:06;20.40;33.80
49184;DHT22;35021;49.214;12.270;2024-01-07T02:37:34;20.40;33.80
49184;DHT22;35021;49.214;12.270;2024-01-07T02:40:01;20.30;33.90
49184;DHT22;35021;49.214;12.270;2024-01-07T02:42:28;20.30;34.00
49184;DHT22;35021;49.214;12.270;2024-01-07T02:44:55;20.20;34.10
49184;DHT22;35021;49.214;12.270;2024-01-07T02:47:22;20.20;34.10
49184;DHT22;35021;49.214;12.270;2024-01-07T02:49:49;20.20;34.10
49184;DHT22;35021;49.214;12.270;2024-01-07T02:52:17;20.20;34.10
49184;DHT22;35021;49.214;12.270;2024-01-07T02:54:44;20.20;34.10
49184;DHT22;35021;49.214;12.270;2024-01-07T02:57:10;20.20;34.10
49184;DHT22;35021;49.214;12.270;2024-01-07T02:59:37;20.20;34.20
49184;DHT22;35021;49.214;12.270;2024-01-07T03:02:04;20.20;34.10
49184;DHT22;35021;49.214;12.270;2024-01-07T03:04:31;20.20;34.10
49184;DHT22;35021;49.214;12.270;2024-01-07T03:06:59;20.20;34.10
49184;DHT22;35021;49.214;12.270;2024-01-07T03:09:26;20.20;34.00
49184;DHT22;35021;49.214;12.270;2024-01-07T03:11:53;20.20;33.90
49184;DHT22;35021;49.214;12.270;2024-01-07T03:14:22;20.20;33.80
49184;DHT22;35021;49.214;12.270;2024-01-07T03:16:50;20.20;33.80
49184;DHT22;35021;49.214;12.270;2024-01-07T03:19:17;20.20;33.80
49184;DHT22;35021;49.214;12.270;2024-01-07T03:21:44;20.20;33.70
49184;DHT22;35021;49.214;12.270;2024-01-07T03:24:11;20.20;33.70
49184;DHT22;35021;49.214;12.270;2024-01-07T03:26:38;20.20;33.70
49184;DHT22;35021;49.214;12.270;2024-01-07T03:29:05;20.20;33.70
49184;DHT22;35021;49.214;12.270;2024-01-07T03:31:32;20.20;33.60
49184;DHT22;35021;49.214;12.270;2024-01-07T03:33:59;20.20;33.60
49184;DHT22;35021;49.214;12.270;2024-01-07T03:36:27;20.20;33.50
49184;DHT22;35021;49.214;12.270;2024-01-07T03:38:54;20.20;34.20
49184;DHT22;35021;49.214;12.270;2024-01-07T03:41:21;20.20;33.50
49184;DHT22;35021;49.214;12.270;2024-01-07T03:43:48;20.20;33.50
49184;DHT22;35021;49.214;12.270;2024-01-07T03:46:16;20.10;33.30
49184;DHT22;35021;49.214;12.270;2024-01-07T03:48:43;20.20;33.30
49184;DHT22;35021;49.214;12.270;2024-01-07T03:51:10;20.20;33.30
49184;DHT22;35021;49.214;12.270;2024-01-07T03:53:37;20.20;33.20
49184;DHT22;35021;49.214;12.270;2024-01-07T03:56:04;20.10;33.00
49184;DHT22;35021;49.214;12.270;2024-01-07T03:58:31;20.10;33.00
49184;DHT22;35021;49.214;12.270;2024-01-07T04:00:58;20.20;33.10
49184;DHT22;35021;49.214;12.270;2024-01-07T04:03:26;20.20;33.10
49184;DHT22;35021;49.214;12.270;2024-01-07T04:05:53;20.20;33.20
49184;DHT22;35021;49.214;12.270;2024-01-07T04:08:20;20.20;33.20
49184;DHT22;35021;49.214;12.270;2024-01-07T04:10:47;20.20;33.60
49184;DHT22;35021;49.214;12.270;2024-01-07T04:13:14;20.20;33.20
49184;DHT22;35021;49.214;12.270;2024-01-07T04:15:41;20.20;33.10
49184;DHT22;35021;49.214;12.270;2024-01-07T04:18:08;20.20;33.00
49184;DHT22;35021;49.214;12.270;2024-01-07T04:20:35;20.20;33.00
49184;DHT22;35021;49.214;12.270;2024-01-07T04:23:02;20.20;32.90
49184;DHT22;35021;49.214;12.270;2024-01-07T04:25:29;20.30;32.90
49184;DHT22;35021;49.214;12.270;2024-01-07T04:27:56;20.30;32.90
49184;DHT22;35021;49.214;12.270;2024-01-07T04:30:23;20.30;32.90
49184;DHT22;35021;49.214;12.270;2024-01-07T04:32:50;20.30;32.80
49184;DHT22;35021;49.214;12.270;2024-01-07T04:35:17;20.30;32.80
49184;DHT22;35021;49.214;12.270;2024-01-07T04:37:44;20.20;32.70
49184;DHT22;35021;49.214;12.270;2024-01-07T04:40:11;20.20;32.70
49184;DHT22;35021;49.214;12.270;2024-01-07T04:42:39;20.10;32.60
49184;DHT22;35021;49.214;12.270;2024-01-07T04:45:06;20.10;32.50
49184;DHT22;35021;49.214;12.270;2024-01-07T04:47:33;20.10;32.40
49184;DHT22;35021;49.214;12.270;2024-01-07T04:50:03;20.10;32.30
49184;DHT22;35021;49.214;12.270;2024-01-07T04:52:31;20.10;32.20
49184;DHT22;35021;49.214;12.270;2024-01-07T04:54:58;20.10;32.20
49184;DHT22;35021;49.214;12.270;2024-01-07T04:57:25;20.10;32.10
49184;DHT22;35021;49.214;12.270;2024-01-07T04:59:52;20.10;32.00
49184;DHT22;35021;49.214;12.270;2024-01-07T05:02:19;20.20;32.00
49184;DHT22;35021;49.214;12.270;2024-01-07T05:04:47;20.30;32.00
49184;DHT22;35021;49.214;12.270;2024-01-07T05:07:14;20.30;31.90
49184;DHT22;35021;49.214;12.270;2024-01-07T05:09:41;20.40;31.80
49184;DHT22;35021;49.214;12.270;2024-01-07T05:12:08;20.50;31.80
49184;DHT22;35021;49.214;12.270;2024-01-07T05:14:35;20.60;31.80
49184;DHT22;35021;49.214;12.270;2024-01-07T05:17:03;20.60;31.80
49184;DHT22;35021;49.214;12.270;2024-01-07T05:19:30;20.70;31.80
49184;DHT22;35021;49.214;12.270;2024-01-07T05:21:58;20.70;31.80
49184;DHT22;35021;49.214;12.270;2024-01-07T05:24:24;20.70;31.80
49184;DHT22;35021;49.214;12.270;2024-01-07T05:26:52;20.80;31.80
49184;DHT22;35021;49.214;12.270;2024-01-07T05:29:19;20.80;31.80
49184;DHT22;35021;49.214;12.270;2024-01-07T05:31:46;20.70;31.70
49184;DHT22;35021;49.214;12.270;2024-01-07T05:34:14;20.70;31.80
49184;DHT22;35021;49.214;12.270;2024-01-07T05:36:41;20.70;31.70
49184;DHT22;35021;49.214;12.270;2024-01-07T05:39:09;20.70;31.60
49184;DHT22;35021;49.214;12.270;2024-01-07T05:41:39;20.80;31.60
49184;DHT22;35021;49.214;12.270;2024-01-07T05:44:06;20.80;31.50
49184;DHT22;35021;49.214;12.270;2024-01-07T05:46:34;20.80;31.30
49184;DHT22;35021;49.214;12.270;2024-01-07T05:49:00;20.90;31.20
49184;DHT22;35021;49.214;12.270;2024-01-07T05:51:28;20.90;31.10
49184;DHT22;35021;49.214;12.270;2024-01-07T05:53:55;21.00;30.90
49184;DHT22;35021;49.214;12.270;2024-01-07T05:56:22;21.00;30.90
49184;DHT22;35021;49.214;12.270;2024-01-07T05:58:49;21.00;30.70
49184;DHT22;35021;49.214;12.270;2024-01-07T06:01:19;21.00;30.60
49184;DHT22;35021;49.214;12.270;2024-01-07T06:03:47;21.00;30.50
49184;DHT22;35021;49.214;12.270;2024-01-07T06:06:17;21.00;30.50
49184;DHT22;35021;49.214;12.270;2024-01-07T06:08:44;20.90;30.50
49184;DHT22;35021;49.214;12.270;2024-01-07T06:11:11;20.90;30.50
49184;DHT22;35021;49.214;12.270;2024-01-07T06:13:45;20.90;30.60
49184;DHT22;35021;49.214;12.270;2024-01-07T06:16:12;20.80;30.60
49184;DHT22;35021;49.214;12.270;2024-01-07T06:18:39;20.80;30.60
49184;DHT22;35021;49.214;12.270;2024-01-07T06:21:06;20.80;30.50
49184;DHT22;35021;49.214;12.270;2024-01-07T06:23:33;20.80;30.50
49184;DHT22;35021;49.214;12.270;2024-01-07T06:26:02;20.80;30.50
49184;DHT22;35021;49.214;12.270;2024-01-07T06:28:29;20.80;30.50
49184;DHT22;35021;49.214;12.270;2024-01-07T06:30:56;20.80;30.40
49184;DHT22;35021;49.214;12.270;2024-01-07T06:33:26;20.70;30.40
49184;DHT22;35021;49.214;12.270;2024-01-07T06:35:53;20.80;30.50
49184;DHT22;35021;49.214;12.270;2024-01-07T06:38:20;20.80;30.50
49184;DHT22;35021;49.214;12.270;2024-01-07T06:40:47;20.80;30.50
49184;DHT22;35021;49.214;12.270;2024-01-07T06:43:14;20.80;30.60
49184;DHT22;35021;49.214;12.270;2024-01-07T06:45:42;20.90;30.60
49184;DHT22;35021;49.214;12.270;2024-01-07T06:48:09;20.90;30.60
49184;DHT22;35021;49.214;12.270;2024-01-07T06:50:36;20.90;30.70
49184;DHT22;35021;49.214;12.270;2024-01-07T06:53:03;20.90;30.80
49184;DHT22;35021;49.214;12.270;2024-01-07T06:55:30;20.80;30.70
49184;DHT22;35021;49.214;12.270;2024-01-07T06:57:57;20.80;30.80
49184;DHT22;35021;49.214;12.270;2024-01-07T07:00:24;20.80;30.90
49184;DHT22;35021;49.214;12.270;2024-01-07T07:02:51;20.80;31.50
49184;DHT22;35021;49.214;12.270;2024-01-07T07:05:18;20.70;31.50
49184;DHT22;35021;49.214;12.270;2024-01-07T07:07:45;20.70;31.40
49184;DHT22;35021;49.214;12.270;2024-01-07T07:10:12;20.70;31.30
49184;DHT22;35021;49.214;12.270;2024-01-07T07:12:39;20.60;31.30
49184;DHT22;35021;49.214;12.270;2024-01-07T07:15:06;20.60;31.40
49184;DHT22;35021;49.214;12.270;2024-01-07T07:17:33;20.50;31.40
49184;DHT22;35021;49.214;12.270;2024-01-07T07:20:00;20.50;31.50
49184;DHT22;35021;49.214;12.270;2024-01-07T07:22:28;20.40;31.40
49184;DHT22;35021;49.214;12.270;2024-01-07T07:24:55;20.40;31.40
49184;DHT22;35021;49.214;12.270;2024-01-07T07:27:28;20.40;31.40
49184;DHT22;35021;49.214;12.270;2024-01-07T07:29:55;20.40;31.40
49184;DHT22;35021;49.214;12.270;2024-01-07T07:32:22;20.40;31.40
49184;DHT22;35021;49.214;12.270;2024-01-07T07:34:49;20.40;31.30
49184;DHT22;35021;49.214;12.270;2024-01-07T07:37:16;20.30;31.20
49184;DHT22;35021;49.214;12.270;2024-01-07T07:39:47;20.30;31.20
49184;DHT22;35021;49.214;12.270;2024-01-07T07:42:14;20.30;31.10
49184;DHT22;35021;49.214;12.270;2024-01-07T07:44:41;20.30;31.10
49184;DHT22;35021;49.214;12.270;2024-01-07T07:47:08;20.30;31.00
49184;DHT22;35021;49.214;12.270;2024-01-07T07:49:38;20.30;31.00
49184;DHT22;35021;49.214;12.270;2024-01-07T07:52:07;20.30;30.90
49184;DHT22;35021;49.214;12.270;2024-01-07T07:54:38;20.30;30.90
49184;DHT22;35021;49.214;12.270;2024-01-07T07:57:05;20.30;30.90
49184;DHT22;35021;49.214;12.270;2024-01-07T07:59:32;20.20;30.70
49184;DHT22;35021;49.214;12.270;2024-01-07T08:01:59;20.20;30.70
49184;DHT22;35021;49.214;12.270;2024-01-07T08:04:28;20.10;30.60
49184;DHT22;35021;49.214;12.270;2024-01-07T08:06:55;20.10;31.20
49184;DHT22;35021;49.214;12.270;2024-01-07T08:09:23;20.00;30.40
49184;DHT22;35021;49.214;12.270;2024-01-07T08:11:52;19.90;30.60
49184;DHT22;35021;49.214;12.270;2024-01-07T08:14:19;19.80;30.60
49184;DHT22;35021;49.214;12.270;2024-01-07T08:16:46;19.80;30.70
49184;DHT22;35021;49.214;12.270;2024-01-07T08:19:13;19.70;30.70
49184;DHT22;35021;49.214;12.270;2024-01-07T08:21:41;19.60;30.80
49184;DHT22;35021;49.214;12.270;2024-01-07T08:24:08;19.60;30.90
49184;DHT22;35021;49.214;12.270;2024-01-07T08:26:37;19.50;30.80
49184;DHT22;35021;49.214;12.270;2024-01-07T08:29:04;19.40;30.80
49184;DHT22;35021;49.214;12.270;2024-01-07T08:31:31;19.40;30.80
49184;DHT22;35021;49.214;12.270;2024-01-07T08:33:59;19.40;30.90
49184;DHT22;35021;49.214;12.270;2024-01-07T08:36:27;19.30;30.80
49184;DHT22;35021;49.214;12.270;2024-01-07T08:38:54;19.30;30.80
49184;DHT22;35021;49.214;12.270;2024-01-07T08:41:21;19.30;31.20
49184;DHT22;35021;49.214;12.270;2024-01-07T08:43:48;19.30;31.60
49184;DHT22;35021;49.214;12.270;2024-01-07T08:46:15;19.30;31.40
49184;DHT22;35021;49.214;12.270;2024-01-07T08:48:42;19.30;31.70
49184;DHT22;35021;49.214;12.270;2024-01-07T08:51:09;19.20;32.20
49184;DHT22;35021;49.214;12.270;2024-01-07T08:53:36;19.20;31.20
49184;DHT22;35021;49.214;12.270;2024-01-07T08:56:03;19.10;31.00
49184;DHT22;35021;49.214;12.270;2024-01-07T08:58:30;19.10;31.00
49184;DHT22;35021;49.214;12.270;2024-01-07T09:00:57;19.10;30.90
49184;DHT22;35021;49.214;12.270;2024-01-07T09:03:24;19.10;30.70
49184;DHT22;35021;49.214;12.270;2024-01-07T09:05:52;19.10;30.80
49184;DHT22;35021;49.214;12.270;2024-01-07T09:08:19;19.10;30.90
49184;DHT22;35021;49.214;12.270;2024-01-07T09:10:46;19.10;30.80
49184;DHT22;35021;49.214;12.270;2024-01-07T09:13:13;19.20;30.80
49184;DHT22;35021;49.214;12.270;2024-01-07T09:15:40;19.10;30.70
49184;DHT22;35021;49.214;12.270;2024-01-07T09:18:07;19.20;30.60
49184;DHT22;35021;49.214;12.270;2024-01-07T09:20:34;19.20;30.60
49184;DHT22;35021;49.214;12.270;2024-01-07T09:23:01;19.20;30.50
49184;DHT22;35021;49.214;12.270;2024-01-07T09:25:28;19.30;30.50
49184;DHT22;35021;49.214;12.270;2024-01-07T09:27:56;19.30;30.50
49184;DHT22;35021;49.214;12.270;2024-01-07T09:30:23;19.40;30.60
49184;DHT22;35021;49.214;12.270;2024-01-07T09:32:50;19.40;30.60
49184;DHT22;35021;49.214;12.270;2024-01-07T09:35:17;19.40;30.50
49184;DHT22;35021;49.214;12.270;2024-01-07T09:37:44;19.50;30.30
49184;DHT22;35021;49.214;12.270;2024-01-07T09:40:11;19.60;30.10
49184;DHT22;35021;49.214;12.270;2024-01-07T09:42:39;19.60;30.00
49184;DHT22;35021;49.214;12.270;2024-01-07T09:45:06;19.60;30.00
49184;DHT22;35021;49.214;12.270;2024-01-07T09:47:34;19.60;29.90
49184;DHT22;35021;49.214;12.270;2024-01-07T09:50:02;19.60;29.90
49184;DHT22;35021;49.214;12.270;2024-01-07T09:52:30;19.70;29.90
49184;DHT22;35021;49.214;12.270;2024-01-07T09:54:58;19.60;29.90
49184;DHT22;35021;49.214;12.270;2024-01-07T09:57:26;19.60;29.90
49184;DHT22;35021;49.214;12.270;2024-01-07T09:59:53;19.60;29.90
49184;DHT22;35021;49.214;12.270;2024-01-07T10:02:20;19.60;30.00
49184;DHT22;35021;49.214;12.270;2024-01-07T10:04:49;19.60;30.20
49184;DHT22;35021;49.214;12.270;2024-01-07T10:07:17;19.60;30.00
49184;DHT22;35021;49.214;12.270;2024-01-07T10:09:44;19.60;30.60
49184;DHT22;35021;49.214;12.270;2024-01-07T10:12:11;19.60;30.00
49184;DHT22;35021;49.214;12.270;2024-01-07T10:14:39;19.60;30.00
49184;DHT22;35021;49.214;12.270;2024-01-07T10:17:16;19.70;30.00
49184;DHT22;35021;49.214;12.270;2024-01-07T10:19:44;19.70;29.90
49184;DHT22;35021;49.214;12.270;2024-01-07T10:22:12;19.80;29.90
49184;DHT22;35021;49.214;12.270;2024-01-07T10:24:40;19.80;29.90
49184;DHT22;35021;49.214;12.270;2024-01-07T10:27:08;19.80;29.90
49184;DHT22;35021;49.214;12.270;2024-01-07T10:29:37;19.80;29.90
49184;DHT22;35021;49.214;12.270;2024-01-07T10:32:04;19.80;29.80
49184;DHT22;35021;49.214;12.270;2024-01-07T10:34:36;19.90;29.80
49184;DHT22;35021;49.214;12.270;2024-01-07T10:37:04;19.90;29.80
49184;DHT22;35021;49.214;12.270;2024-01-07T10:39:35;19.90;29.60
49184;DHT22;35021;49.214;12.270;2024-01-07T10:42:03;19.90;29.60
49184;DHT22;35021;49.214;12.270;2024-01-07T10:44:31;19.90;29.60
49184;DHT22;35021;49.214;12.270;2024-01-07T10:46:58;19.90;29.60
49184;DHT22;35021;49.214;12.270;2024-01-07T10:49:26;19.90;29.60
49184;DHT22;35021;49.214;12.270;2024-01-07T10:52:02;19.90;29.50
49184;DHT22;35021;49.214;12.270;2024-01-07T10:54:46;19.90;29.50
49184;DHT22;35021;49.214;12.270;2024-01-07T10:57:48;19.90;29.40
49184;DHT22;35021;49.214;12.270;2024-01-07T11:00:08;20.00;29.40
49184;DHT22;35021;49.214;12.270;2024-01-07T11:02:39;20.00;29.40
49184;DHT22;35021;49.214;12.270;2024-01-07T11:05:12;20.00;29.50
49184;DHT22;35021;49.214;12.270;2024-01-07T11:08:24;20.00;29.50
49184;DHT22;35021;49.214;12.270;2024-01-07T11:10:43;20.00;29.50
49184;DHT22;35021;49.214;12.270;2024-01-07T11:13:34;20.10;29.60
49184;DHT22;35021;49.214;12.270;2024-01-07T11:16:08;20.10;29.70
49184;DHT22;35021;49.214;12.270;2024-01-07T11:18:46;20.10;29.50
49184;DHT22;35021;49.214;12.270;2024-01-07T11:21:25;20.20;29.60
49184;DHT22;35021;49.214;12.270;2024-01-07T11:23:56;20.20;29.60
49184;DHT22;35021;49.214;12.270;2024-01-07T11:26:27;20.30;29.50
49184;DHT22;35021;49.214;12.270;2024-01-07T11:28:58;20.30;29.50
49184;DHT22;35021;49.214;12.270;2024-01-07T11:31:43;20.30;29.50
49184;DHT22;35021;49.214;12.270;2024-01-07T11:34:11;20.40;29.50
49184;DHT22;35021;49.214;12.270;2024-01-07T11:36:58;20.50;29.60
49184;DHT22;35021;49.214;12.270;2024-01-07T11:39:25;20.50;29.40
49184;DHT22;35021;49.214;12.270;2024-01-07T11:41:52;20.60;29.50
49184;DHT22;35021;49.214;12.270;2024-01-07T11:44:19;20.60;29.40
49184;DHT22;35021;49.214;12.270;2024-01-07T11:46:46;20.60;29.30
49184;DHT22;35021;49.214;12.270;2024-01-07T11:49:13;20.60;29.30
49184;DHT22;35021;49.214;12.270;2024-01-07T11:51:42;20.50;29.40
49184;DHT22;35021;49.214;12.270;2024-01-07T11:54:09;20.50;29.40
49184;DHT22;35021;49.214;12.270;2024-01-07T11:56:36;20.60;29.40
49184;DHT22;35021;49.214;12.270;2024-01-07T11:59:06;20.60;29.30
49184;DHT22;35021;49.214;12.270;2024-01-07T12:01:36;20.50;29.10
49184;DHT22;35021;49.214;12.270;2024-01-07T12:04:03;20.60;29.10
49184;DHT22;35021;49.214;12.270;2024-01-07T12:06:34;20.60;29.20
49184;DHT22;35021;49.214;12.270;2024-01-07T12:09:01;20.50;29.00
49184;DHT22;35021;49.214;12.270;2024-01-07T12:11:33;20.50;28.80
49184;DHT22;35021;49.214;12.270;2024-01-07T12:14:02;20.50;28.80
49184;DHT22;35021;49.214;12.270;2024-01-07T12:16:31;20.50;28.90
49184;DHT22;35021;49.214;12.270;2024-01-07T12:18:58;20.50;28.90
49184;DHT22;35021;49.214;12.270;2024-01-07T12:21:26;20.50;28.90
49184;DHT22;35021;49.214;12.270;2024-01-07T12:23:58;20.50;28.80
49184;DHT22;35021;49.214;12.270;2024-01-07T12:26:25;20.50;28.80
49184;DHT22;35021;49.214;12.270;2024-01-07T12:28:53;20.50;28.80
49184;DHT22;35021;49.214;12.270;2024-01-07T12:31:21;20.40;28.90
49184;DHT22;35021;49.214;12.270;2024-01-07T12:33:48;20.40;28.90
49184;DHT22;35021;49.214;12.270;2024-01-07T12:36:19;20.40;29.10
49184;DHT22;35021;49.214;12.270;2024-01-07T12:38:47;20.40;29.60
49184;DHT22;35021;49.214;12.270;2024-01-07T12:41:15;20.40;29.00
49184;DHT22;35021;49.214;12.270;2024-01-07T12:43:42;20.40;29.00
49184;DHT22;35021;49.214;12.270;2024-01-07T12:46:09;20.40;29.00
49184;DHT22;35021;49.214;12.270;2024-01-07T12:48:36;20.40;29.00
49184;DHT22;35021;49.214;12.270;2024-01-07T12:51:03;20.40;29.10
49184;DHT22;35021;49.214;12.270;2024-01-07T12:53:30;20.40;29.10
49184;DHT22;35021;49.214;12.270;2024-01-07T12:55:58;20.40;29.70
49184;DHT22;35021;49.214;12.270;2024-01-07T12:58:25;20.40;29.10
49184;DHT22;35021;49.214;12.270;2024-01-07T13:00:52;20.40;29.00
49184;DHT22;35021;49.214;12.270;2024-01-07T13:03:23;20.40;29.10
49184;DHT22;35021;49.214;12.270;2024-01-07T13:05:51;20.40;29.00
49184;DHT22;35021;49.214;12.270;2024-01-07T13:08:19;20.40;29.00
49184;DHT22;35021;49.214;12.270;2024-01-07T13:10:49;20.40;29.00
49184;DHT22;35021;49.214;12.270;2024-01-07T13:13:16;20.40;29.00
49184;DHT22;35021;49.214;12.270;2024-01-07T13:15:44;20.40;28.90
49184;DHT22;35021;49.214;12.270;2024-01-07T13:18:12;20.50;28.90
49184;DHT22;35021;49.214;12.270;2024-01-07T13:20:46;20.50;28.80
49184;DHT22;35021;49.214;12.270;2024-01-07T13:23:24;20.50;28.80
49184;DHT22;35021;49.214;12.270;2024-01-07T13:25:51;20.50;28.90
49184;DHT22;35021;49.214;12.270;2024-01-07T13:28:18;20.50;28.80
49184;DHT22;35021;49.214;12.270;2024-01-07T13:30:46;20.50;28.70
49184;DHT22;35021;49.214;12.270;2024-01-07T13:33:14;20.50;28.80
49184;DHT22;35021;49.214;12.270;2024-01-07T13:35:47;20.60;28.80
49184;DHT22;35021;49.214;12.270;2024-01-07T13:38:14;20.60;28.70
49184;DHT22;35021;49.214;12.270;2024-01-07T13:40:42;20.60;28.70
49184;DHT22;35021;49.214;12.270;2024-01-07T13:43:09;20.60;28.70
49184;DHT22;35021;49.214;12.270;2024-01-07T13:45:36;20.60;28.70
49184;DHT22;35021;49.214;12.270;2024-01-07T13:48:03;20.50;28.80
49184;DHT22;35021;49.214;12.270;2024-01-07T13:50:31;20.50;29.00
49184;DHT22;35021;49.214;12.270;2024-01-07T13:53:01;20.60;29.00
49184;DHT22;35021;49.214;12.270;2024-01-07T13:55:29;20.60;28.80
49184;DHT22;35021;49.214;12.270;2024-01-07T13:57:56;20.60;29.10
49184;DHT22;35021;49.214;12.270;2024-01-07T14:00:23;20.60;28.90
49184;DHT22;35021;49.214;12.270;2024-01-07T14:02:50;20.60;28.90
49184;DHT22;35021;49.214;12.270;2024-01-07T14:05:18;20.60;28.80
49184;DHT22;35021;49.214;12.270;2024-01-07T14:07:47;20.60;28.80
49184;DHT22;35021;49.214;12.270;2024-01-07T14:10:14;20.60;28.60
49184;DHT22;35021;49.214;12.270;2024-01-07T14:12:42;20.70;28.60
49184;DHT22;35021;49.214;12.270;2024-01-07T14:15:10;20.70;28.70
49184;DHT22;35021;49.214;12.270;2024-01-07T14:17:39;20.70;28.60
49184;DHT22;35021;49.214;12.270;2024-01-07T14:20:07;20.70;28.60
49184;DHT22;35021;49.214;12.270;2024-01-07T14:22:34;20.70;28.40
49184;DHT22;35021;49.214;12.270;2024-01-07T14:25:01;20.70;29.00
49184;DHT22;35021;49.214;12.270;2024-01-07T14:27:30;20.70;28.40
49184;DHT22;35021;49.214;12.270;2024-01-07T14:29:59;20.80;28.50
49184;DHT22;35021;49.214;12.270;2024-01-07T14:32:26;20.80;28.50
49184;DHT22;35021;49.214;12.270;2024-01-07T14:34:55;20.80;28.40
49184;DHT22;35021;49.214;12.270;2024-01-07T14:37:25;20.80;28.40
49184;DHT22;35021;49.214;12.270;2024-01-07T14:39:54;20.80;28.30
49184;DHT22;35021;49.214;12.270;2024-01-07T14:42:22;20.70;28.30
49184;DHT22;35021;49.214;12.270;2024-01-07T14:44:50;20.70;28.20
49184;DHT22;35021;49.214;12.270;2024-01-07T14:47:17;20.70;28.30
49184;DHT22;35021;49.214;12.270;2024-01-07T14:49:45;20.60;28.40
49184;DHT22;35021;49.214;12.270;2024-01-07T14:52:12;20.60;28.40
49184;DHT22;35021;49.214;12.270;2024-01-07T14:54:39;20.60;28.40
49184;DHT22;35021;49.214;12.270;2024-01-07T14:57:06;20.50;28.40
49184;DHT22;35021;49.214;12.270;2024-01-07T14:59:35;20.50;28.40
49184;DHT22;35021;49.214;12.270;2024-01-07T15:02:03;20.50;28.20
49184;DHT22;35021;49.214;12.270;2024-01-07T15:04:30;20.50;28.20
49184;DHT22;35021;49.214;12.270;2024-01-07T15:06:58;20.50;28.20
49184;DHT22;35021;49.214;12.270;2024-01-07T15:09:25;20.50;28.20
49184;DHT22;35021;49.214;12.270;2024-01-07T15:11:53;20.50;28.20
49184;DHT22;35021;49.214;12.270;2024-01-07T15:14:20;20.50;28.20
49184;DHT22;35021;49.214;12.270;2024-01-07T15:16:48;20.60;28.30
49184;DHT22;35021;49.214;12.270;2024-01-07T15:19:20;20.70;28.20